createdAt,value
2019-02-19T08:29:56.507Z,87.40
2019-02-19T08:32:23.217Z,88.10
2019-02-19T08:34:49.940Z,90.00
2019-02-19T08:37:16.680Z,89.50
2019-02-19T08:39:43.407Z,90.30
2019-02-19T08:42:10.129Z,88.30
2019-02-19T08:44:36.947Z,89.40
2019-02-19T08:47:03.698Z,81.50
2019-02-19T08:49:30.437Z,86.60
2019-02-19T08:51:57.147Z,85.40
2019-02-19T08:54:23.883Z,81.80
2019-02-19T08:56:50.600Z,79.80
2019-02-19T08:59:17.314Z,74.70
2019-02-19T09:01:44.052Z,75.30
2019-02-19T09:04:10.771Z,75.50
2019-02-19T09:06:37.504Z,74.00
2019-02-19T09:09:05.492Z,69.60
2019-02-19T09:11:32.208Z,68.50
2019-02-19T09:13:59.590Z,69.40
2019-02-19T09:16:26.406Z,68.10
2019-02-19T09:18:53.129Z,68.70
2019-02-19T09:21:19.839Z,69.40
2019-02-19T09:23:46.548Z,69.00
2019-02-19T09:26:47.741Z,70.90
2019-02-19T09:30:24.641Z,69.90
2019-02-19T09:32:51.622Z,71.50
2019-02-19T09:35:18.604Z,70.70
2019-02-19T09:37:45.601Z,68.60
2019-02-19T09:40:12.586Z,69.30
2019-02-19T09:42:39.574Z,69.20
2019-02-19T09:45:06.583Z,66.20
2019-02-19T09:47:33.552Z,67.00
2019-02-19T09:50:00.815Z,64.70
2019-02-19T09:52:27.796Z,64.40
2019-02-19T09:54:54.809Z,63.90
2019-02-19T09:57:21.848Z,63.20
2019-02-19T09:59:48.816Z,64.80
2019-02-19T10:02:15.797Z,64.40
2019-02-19T10:04:42.811Z,64.20
2019-02-19T10:07:09.827Z,63.00
2019-02-19T10:09:36.993Z,62.70
2019-02-19T10:12:03.977Z,64.00
2019-02-19T10:14:30.959Z,63.80
2019-02-19T10:16:57.944Z,63.10
2019-02-19T10:19:26.127Z,61.40
2019-02-19T10:21:54.412Z,60.70
2019-02-19T10:24:21.395Z,61.00
2019-02-19T10:26:49.697Z,60.50
2019-02-19T10:29:16.824Z,60.90
2019-02-19T10:31:43.793Z,60.60
2019-02-19T10:34:10.792Z,61.00
2019-02-19T10:36:38.616Z,60.60
2019-02-19T10:39:07.687Z,59.20
2019-02-19T10:41:34.679Z,59.10
2019-02-19T10:44:01.654Z,59.70
2019-02-19T10:46:28.628Z,60.20
2019-02-19T10:48:55.632Z,60.00
2019-02-19T10:51:22.736Z,60.20
2019-02-19T10:53:49.973Z,60.00
2019-02-19T10:56:17.023Z,60.50
2019-02-19T10:58:44.073Z,61.70
2019-02-19T11:01:11.040Z,61.20
2019-02-19T11:03:38.224Z,61.80
2019-02-19T11:06:05.211Z,61.30
2019-02-19T11:08:32.163Z,59.20
2019-02-19T11:10:59.155Z,58.40
2019-02-19T11:13:26.144Z,59.00
2019-02-19T11:15:53.109Z,59.70
2019-02-19T11:18:28.194Z,59.70
2019-02-19T11:20:49.017Z,60.50
2019-02-19T11:23:15.988Z,60.00
2019-02-19T11:25:42.996Z,58.90
2019-02-19T11:28:09.983Z,58.30
2019-02-19T11:30:36.952Z,58.60
2019-02-19T11:33:04.922Z,58.90
2019-02-19T11:35:31.925Z,58.70
2019-02-19T11:39:17.116Z,59.10
2019-02-19T11:41:43.983Z,59.90
2019-02-19T11:44:10.820Z,58.80
2019-02-19T11:46:37.823Z,57.80
2019-02-19T11:49:04.940Z,58.90
2019-02-19T11:51:31.843Z,59.40
2019-02-19T11:53:58.705Z,58.40
2019-02-19T11:56:25.567Z,53.70
2019-02-19T11:58:52.423Z,53.60
2019-02-19T12:01:19.355Z,52.80
2019-02-19T12:03:46.216Z,53.20
2019-02-19T12:06:13.064Z,52.40
2019-02-19T12:08:40.060Z,53.70
2019-02-19T12:11:06.925Z,54.00
2019-02-19T12:13:33.751Z,55.20
2019-02-19T12:16:00.616Z,58.10
2019-02-19T12:18:27.730Z,57.50
2019-02-19T12:20:54.570Z,58.90
2019-02-19T12:23:21.431Z,59.40
2019-02-19T12:25:48.296Z,60.00
2019-02-19T12:28:15.140Z,60.10
2019-02-19T12:30:42.032Z,60.50
2019-02-19T12:33:08.961Z,60.60
2019-02-19T12:35:35.800Z,60.10
2019-02-19T12:38:02.686Z,59.90
2019-02-19T12:40:29.539Z,60.00
2019-02-19T12:42:56.367Z,59.60
2019-02-19T12:45:23.224Z,61.70
2019-02-19T12:47:50.208Z,58.70
2019-02-19T12:50:17.092Z,57.90
2019-02-19T12:52:43.931Z,56.20
2019-02-19T12:55:10.792Z,54.30
2019-02-19T12:57:37.636Z,53.80
2019-02-19T13:00:05.887Z,54.00
2019-02-19T13:02:32.756Z,54.60
2019-02-19T13:04:59.607Z,54.60
2019-02-19T13:07:26.449Z,55.90
2019-02-19T13:09:53.491Z,56.20
2019-02-19T13:12:20.352Z,55.60
2019-02-19T13:14:47.180Z,56.00
2019-02-19T13:17:14.050Z,56.50
2019-02-19T13:19:40.888Z,57.10
2019-02-19T13:22:07.887Z,57.40
2019-02-19T13:24:34.789Z,57.90
2019-02-19T13:27:01.607Z,58.60
2019-02-19T13:29:28.441Z,58.90
2019-02-19T13:31:55.299Z,58.80
2019-02-19T13:34:22.156Z,58.50
2019-02-19T13:36:49.029Z,58.10
2019-02-19T13:39:15.879Z,57.50
2019-02-19T13:41:42.739Z,57.80
2019-02-19T13:44:09.607Z,57.70
2019-02-19T13:46:36.468Z,58.10
2019-02-19T13:49:11.830Z,58.40
2019-02-19T13:51:32.047Z,58.60
2019-02-19T13:54:09.368Z,58.70
2019-02-19T13:56:36.220Z,58.80
2019-02-19T13:59:03.075Z,59.00
2019-02-19T14:01:29.943Z,58.30
2019-02-19T14:03:56.789Z,58.10
2019-02-19T14:06:23.664Z,57.90
2019-02-19T14:08:50.641Z,57.90
2019-02-19T14:11:17.483Z,58.10
2019-02-19T14:13:51.659Z,58.30
2019-02-19T14:16:26.010Z,58.50
2019-02-19T14:18:55.047Z,57.90
2019-02-19T14:21:47.355Z,58.20
2019-02-19T14:24:36.487Z,58.40
2019-02-19T14:27:10.528Z,58.30
2019-02-19T14:29:55.435Z,58.90
2019-02-19T14:32:34.015Z,58.00
2019-02-19T14:35:12.160Z,58.20
2019-02-19T14:37:57.592Z,57.60
2019-02-19T14:40:45.340Z,57.70
2019-02-19T14:43:37.967Z,58.40
2019-02-19T14:46:24.577Z,58.10
2019-02-19T14:49:11.080Z,58.20
2019-02-19T14:51:54.511Z,58.00
2019-02-19T14:54:38.239Z,58.20
2019-02-19T14:57:12.570Z,58.60
2019-02-19T15:00:11.666Z,58.40
2019-02-19T15:03:02.068Z,58.10
2019-02-19T15:05:47.232Z,58.20
2019-02-19T15:08:30.463Z,58.50
2019-02-19T15:11:15.761Z,58.60
2019-02-19T15:14:01.281Z,58.50
2019-02-19T15:16:46.504Z,58.60
2019-02-19T15:19:38.868Z,58.50
2019-02-19T15:22:27.240Z,58.40
2019-02-19T15:25:28.004Z,58.60
2019-02-19T15:28:02.233Z,59.20
2019-02-19T15:30:44.124Z,58.80
2019-02-19T15:33:33.379Z,58.80
2019-02-19T15:36:22.729Z,59.10
2019-02-19T15:39:08.583Z,59.30
2019-02-19T15:41:54.311Z,59.00
2019-02-19T15:44:55.747Z,59.00
2019-02-19T15:47:40.047Z,58.90
2019-02-19T15:50:35.484Z,59.20
2019-02-19T15:53:20.579Z,58.70
2019-02-19T15:56:17.663Z,59.00
2019-02-19T15:58:59.881Z,59.50
2019-02-19T16:01:37.463Z,59.60
2019-02-19T16:04:21.741Z,59.80
2019-02-19T16:07:00.965Z,60.40
2019-02-19T16:09:37.837Z,60.70
2019-02-19T16:12:12.892Z,60.30
2019-02-19T16:15:05.204Z,61.30
2019-02-19T16:17:51.815Z,61.40
2019-02-19T16:20:38.338Z,61.60
2019-02-19T16:23:23.303Z,61.50
2019-02-19T16:26:12.428Z,61.40
2019-02-19T16:28:45.028Z,61.70
2019-02-19T16:31:22.516Z,61.60
2019-02-19T16:34:09.016Z,62.30
2019-02-19T16:36:52.979Z,62.10
2019-02-19T16:39:41.052Z,61.90
2019-02-19T16:42:45.708Z,62.70
2019-02-19T16:45:21.482Z,62.30
2019-02-19T16:48:13.664Z,63.40
2019-02-19T16:50:52.540Z,63.20
2019-02-19T16:53:44.827Z,62.80
2019-02-19T16:56:49.252Z,62.70
2019-02-19T16:59:28.141Z,62.70
2019-02-19T17:02:05.542Z,63.40
2019-02-19T17:04:51.053Z,63.70
2019-02-19T17:07:25.520Z,64.20
2019-02-19T17:10:11.421Z,64.30
2019-02-19T17:13:03.739Z,64.20
2019-02-19T17:15:48.685Z,64.40
2019-02-19T17:18:39.488Z,64.60
2019-02-19T17:21:28.288Z,64.50
2019-02-19T17:24:04.351Z,64.30
2019-02-19T17:26:43.585Z,64.40
2019-02-19T17:29:22.722Z,64.20
2019-02-19T17:32:06.044Z,64.70
2019-02-19T17:34:55.648Z,64.50
2019-02-19T17:37:39.487Z,64.40
2019-02-19T17:40:38.270Z,64.50
2019-02-19T17:43:19.852Z,64.60
2019-02-19T17:46:15.324Z,64.70
2019-02-19T17:49:08.614Z,65.40
2019-02-19T17:51:42.152Z,65.00
2019-02-19T17:54:15.632Z,65.60
2019-02-19T17:57:02.137Z,65.90
2019-02-19T17:59:51.767Z,66.30
2019-02-19T18:02:38.257Z,65.90
2019-02-19T18:05:23.889Z,66.20
2019-02-19T18:08:08.936Z,66.10
2019-02-19T18:10:44.388Z,66.00
2019-02-19T18:13:16.955Z,66.40
2019-02-19T18:16:01.953Z,67.00
2019-02-19T18:18:37.598Z,67.00
2019-02-19T18:21:04.475Z,67.10
2019-02-19T18:23:31.323Z,67.30
2019-02-19T18:25:58.156Z,67.40
2019-02-19T18:28:25.010Z,67.90
2019-02-19T18:30:51.852Z,67.90
2019-02-19T18:33:18.688Z,68.00
2019-02-19T18:35:45.580Z,68.40
2019-02-19T18:38:12.424Z,68.20
2019-02-19T18:40:39.291Z,68.70
2019-02-19T18:43:06.260Z,68.60
2019-02-19T18:45:33.124Z,68.70
2019-02-19T18:47:59.996Z,68.80
2019-02-19T18:50:26.885Z,68.40
2019-02-19T18:52:53.765Z,68.70
2019-02-19T18:55:20.609Z,68.80
2019-02-19T18:57:47.520Z,68.60
2019-02-19T19:00:14.390Z,69.00
2019-02-19T19:02:41.233Z,69.10
2019-02-19T19:05:08.121Z,69.40
2019-02-19T19:07:35.169Z,69.40
2019-02-19T19:10:02.013Z,69.30
2019-02-19T19:12:28.900Z,69.50
2019-02-19T19:14:55.879Z,69.40
2019-02-19T19:17:22.885Z,69.10
2019-02-19T19:19:49.856Z,69.30
2019-02-19T19:22:16.716Z,69.20
2019-02-19T19:24:43.562Z,70.20
2019-02-19T19:27:11.360Z,69.70
2019-02-19T19:29:38.513Z,69.60
2019-02-19T19:32:05.502Z,69.70
2019-02-19T19:34:32.513Z,70.10
2019-02-19T19:36:59.352Z,70.50
2019-02-19T19:39:26.409Z,70.40
2019-02-19T19:41:53.272Z,70.40
2019-02-19T19:44:20.108Z,70.70
2019-02-19T19:46:46.962Z,70.80
2019-02-19T19:49:13.826Z,71.00
2019-02-19T19:51:40.669Z,70.70
2019-02-19T19:54:07.554Z,71.00
2019-02-19T19:56:34.420Z,71.30
2019-02-19T19:59:01.295Z,71.10
2019-02-19T20:01:28.217Z,71.10
2019-02-19T20:03:55.497Z,71.10
2019-02-19T20:06:22.335Z,71.20
2019-02-19T20:08:49.210Z,70.90
2019-02-19T20:11:16.128Z,71.10
2019-02-19T20:13:43.044Z,71.00
2019-02-19T20:16:09.901Z,71.10
2019-02-19T20:18:39.175Z,71.10
2019-02-19T20:21:05.743Z,71.20
2019-02-19T20:23:32.587Z,71.20
2019-02-19T20:25:59.451Z,71.20
2019-02-19T20:28:26.291Z,71.10
2019-02-19T20:30:53.135Z,71.40
2019-02-19T20:33:20.025Z,71.60
2019-02-19T20:35:46.864Z,71.60
2019-02-19T20:38:13.700Z,71.50
2019-02-19T20:40:40.587Z,71.60
2019-02-19T20:43:07.466Z,71.70
2019-02-19T20:45:34.308Z,71.50
2019-02-19T20:48:01.185Z,71.60
2019-02-19T20:50:28.028Z,71.60
2019-02-19T20:52:54.877Z,71.60
2019-02-19T20:55:21.831Z,71.80
2019-02-19T21:00:44.317Z,71.80
2019-02-19T21:03:11.241Z,71.80
2019-02-19T21:05:38.196Z,71.80
2019-02-19T21:08:05.156Z,71.80
2019-02-19T21:10:32.157Z,72.10
2019-02-19T21:12:59.052Z,72.10
2019-02-19T21:15:26.007Z,72.20
2019-02-19T21:17:52.992Z,72.50
2019-02-19T21:20:19.856Z,72.60
2019-02-19T21:22:46.833Z,72.70
2019-02-19T21:25:13.695Z,72.90
2019-02-19T21:27:40.565Z,73.10
2019-02-19T21:30:08.152Z,72.80
2019-02-19T21:32:35.087Z,73.00
2019-02-19T21:35:02.129Z,73.50
2019-02-19T21:37:29.087Z,73.40
2019-02-19T21:39:55.975Z,73.30
2019-02-19T21:42:23.108Z,74.50
2019-02-19T21:44:49.968Z,73.80
2019-02-19T21:47:16.876Z,74.20
2019-02-19T21:49:43.843Z,74.20
2019-02-19T21:52:10.704Z,74.30
2019-02-19T21:54:37.987Z,74.60
2019-02-19T21:57:05.032Z,74.40
2019-02-19T21:59:31.885Z,74.50
2019-02-19T22:01:58.838Z,74.60
2019-02-19T22:04:25.872Z,74.70
2019-02-19T22:06:52.779Z,74.70
2019-02-19T22:09:19.757Z,74.70
2019-02-19T22:11:46.611Z,74.70
2019-02-19T22:14:13.556Z,74.80
2019-02-19T22:16:40.764Z,74.80
2019-02-19T22:19:07.615Z,75.00
2019-02-19T22:21:48.166Z,75.20
2019-02-19T22:24:18.099Z,75.20
2019-02-19T22:26:44.951Z,75.40
2019-02-19T22:29:12.003Z,75.20
2019-02-19T22:31:39.097Z,75.60
2019-02-19T22:34:05.953Z,75.60
2019-02-19T22:36:32.799Z,75.20
2019-02-19T22:38:59.759Z,75.50
2019-02-19T22:41:26.607Z,75.40
2019-02-19T22:43:53.528Z,75.50
2019-02-19T22:46:20.664Z,75.80
2019-02-19T22:48:47.601Z,75.90
2019-02-19T22:51:14.663Z,76.00
2019-02-19T22:53:57.079Z,76.00
2019-02-19T22:56:36.461Z,76.20
2019-02-19T22:59:03.507Z,76.40
2019-02-19T23:01:42.401Z,76.60
2019-02-19T23:04:09.307Z,76.60
2019-02-19T23:06:36.167Z,76.50
2019-02-19T23:09:04.791Z,76.60
2019-02-19T23:11:31.652Z,76.80
2019-02-19T23:13:58.513Z,76.50
2019-02-19T23:16:25.375Z,76.60
2019-02-19T23:18:52.262Z,76.60
2019-02-19T23:21:19.096Z,77.50
2019-02-19T23:23:45.946Z,76.60
2019-02-19T23:26:12.809Z,76.60
2019-02-19T23:28:39.666Z,76.90
2019-02-19T23:31:07.256Z,76.80
2019-02-19T23:33:34.386Z,77.40
2019-02-19T23:36:05.498Z,77.10
2019-02-19T23:38:32.401Z,77.60
2019-02-19T23:40:59.318Z,78.50
2019-02-19T23:43:26.219Z,78.00
2019-02-19T23:45:53.347Z,78.70
2019-02-19T23:48:20.436Z,78.70
2019-02-19T23:50:47.465Z,79.40
2019-02-19T23:53:14.359Z,79.20
2019-02-19T23:55:41.282Z,79.50
2019-02-19T23:58:08.191Z,80.00
